Terminal Aerodrome Forecast
Issued by NWS

Home | Current Version | Previous Version | Text Only | Print | Product List | Glossary On
Versions: 1 2 3 4 5 6 7 8 9 10 11 12 13 14 15 16 17 18 19
100
FTUS43 KSGF 291731
TAFBBG
TAF
KBBG 291731Z 2918/3018 10008KT P6SM VCSH SCT004 OVC035
      TEMPO 2918/2922 OVC004
     FM292200 10009KT P6SM VCSH BKN020 OVC050
     FM300200 12009KT 5SM -SHRA BKN010 OVC030
      TEMPO 3003/3007 3SM TSRA OVC010CB
     FM301000 13009KT 2SM BR VCSH BKN005 OVC015
     FM301400 19008KT P6SM VCSH BKN012 OVC050=

USA.gov is the U.S. government's official web portal to all federal, state and local government web resources and services.